Time;durP1;ratioP1;P1;durP2;ratioP2;P2;SDS_P1;SDS_P2;PMS_P1;PMS_P2;Temp;Humidity;BMP_temperature;BMP_pressure;BME280_temperature;BME280_humidity;BME280_pressure;Samples;Min_cycle;Max_cycle;Signal;HPM_P1;HPM_P2
2021/04/22 00:00:45;;;;;;;13.95;7.13;;;17.20;95.60;;;;;;4996728;28;20027;-69
2021/04/22 00:03:15;;;;;;;15.70;8.05;;;17.30;96.20;;;;;;4976697;28;20062;-69
2021/04/22 00:05:43;;;;;;;17.50;8.98;;;17.30;95.90;;;;;;4989458;28;20058;-68
2021/04/22 00:08:11;;;;;;;19.75;9.57;;;17.30;96.30;;;;;;4984912;28;20037;-68
2021/04/22 00:10:50;;;;;;;17.00;11.57;;;17.50;96.30;;;;;;4984993;28;20446;-68
2021/04/22 00:13:24;;;;;;;20.42;12.82;;;17.60;95.00;;;;;;4986503;28;20069;-68
2021/04/22 00:15:53;;;;;;;20.40;12.32;;;17.40;94.70;;;;;;5005143;28;20535;-68
2021/04/22 00:18:20;;;;;;;17.85;12.00;;;17.40;96.30;;;;;;5000290;28;20040;-69
2021/04/22 00:20:49;;;;;;;18.40;12.48;;;17.70;95.40;;;;;;4984999;28;20033;-68
2021/04/22 00:23:18;;;;;;;19.90;12.20;;;17.70;94.40;;;;;;4986991;28;20035;-68
2021/04/22 00:25:46;;;;;;;19.52;11.82;;;17.80;94.60;;;;;;4986542;28;20085;-68
2021/04/22 00:28:15;;;;;;;20.52;13.45;;;18.10;94.90;;;;;;4984319;28;20027;-68
2021/04/22 00:30:44;;;;;;;19.83;13.77;;;18.30;93.80;;;;;;4982186;28;20080;-68
2021/04/22 00:33:16;;;;;;;18.70;13.15;;;18.50;93.50;;;;;;4983247;28;20142;-68
2021/04/22 00:35:45;;;;;;;20.10;12.40;;;18.40;93.70;;;;;;4982456;28;20423;-68
2021/04/22 00:38:13;;;;;;;20.75;12.38;;;18.10;93.20;;;;;;4982439;28;20230;-68
2021/04/22 00:40:42;;;;;;;22.23;12.95;;;18.20;92.80;;;;;;4986503;28;20505;-68
2021/04/22 00:43:12;;;;;;;19.00;12.73;;;18.00;93.10;;;;;;4986595;28;20027;-68
2021/04/22 00:45:42;;;;;;;19.73;11.90;;;17.90;92.90;;;;;;4997841;28;20038;-68
2021/04/22 00:48:16;;;;;;;17.38;11.52;;;18.20;92.20;;;;;;4983916;28;20038;-68
2021/04/22 00:50:44;;;;;;;21.05;13.05;;;18.50;92.40;;;;;;4984401;28;20109;-68
2021/04/22 00:53:13;;;;;;;20.20;14.30;;;18.80;91.90;;;;;;4984741;28;20034;-68
2021/04/22 00:55:40;;;;;;;21.95;16.60;;;18.20;93.10;;;;;;4995193;28;20121;-67
2021/04/22 00:58:09;;;;;;;24.38;17.58;;;18.70;93.40;;;;;;4994029;28;20026;-67
2021/04/22 01:00:59;;;;;;;19.52;14.65;;;18.30;91.60;;;;;;4980892;28;20486;-67
2021/04/22 01:03:28;;;;;;;23.00;15.27;;;18.30;90.90;;;;;;4984888;28;20039;-66
2021/04/22 01:06:03;;;;;;;23.55;17.73;;;18.30;90.60;;;;;;4980546;28;20042;-67
2021/04/22 01:08:30;;;;;;;21.70;15.20;;;18.40;91.00;;;;;;4987060;28;20029;-67
2021/04/22 01:10:58;;;;;;;17.88;14.63;;;18.30;90.90;;;;;;4984427;28;20023;-66
2021/04/22 01:13:25;;;;;;;17.38;13.85;;;18.40;91.00;;;;;;4987862;28;20095;-67
2021/04/22 01:15:53;;;;;;;16.20;12.25;;;18.70;90.90;;;;;;4984761;28;20084;-67
2021/04/22 01:18:20;;;;;;;19.13;14.68;;;19.10;91.10;;;;;;4986752;28;20109;-67
2021/04/22 01:20:50;;;;;;;19.17;13.50;;;18.90;90.20;;;;;;4982291;28;20063;-67
2021/04/22 01:23:17;;;;;;;18.90;13.55;;;18.70;90.50;;;;;;4984843;28;20033;-67
2021/04/22 01:25:50;;;;;;;21.15;13.15;;;19.00;91.40;;;;;;4988622;28;20487;-67
2021/04/22 01:28:19;;;;;;;14.70;11.00;;;19.30;90.40;;;;;;4987160;28;20549;-67
2021/04/22 01:30:49;;;;;;;12.25;9.60;;;19.30;88.60;;;;;;4985736;28;20411;-67
2021/04/22 01:33:19;;;;;;;15.82;7.40;;;19.20;88.80;;;;;;4984813;28;20014;-67
2021/04/22 01:35:53;;;;;;;11.60;6.63;;;19.10;89.10;;;;;;4985704;28;20046;-66
2021/04/22 01:38:20;;;;;;;10.73;7.15;;;19.40;88.00;;;;;;4990997;28;20375;-66
2021/04/22 01:40:48;;;;;;;10.32;6.82;;;19.50;88.20;;;;;;4985978;28;20030;-67
2021/04/22 01:43:16;;;;;;;11.60;6.50;;;19.20;87.20;;;;;;4990912;28;20039;-67
2021/04/22 01:45:43;;;;;;;10.38;5.93;;;18.80;87.80;;;;;;4993214;28;20042;-67
2021/04/22 01:48:11;;;;;;;6.15;3.63;;;18.60;88.40;;;;;;4990450;28;20027;-67
2021/04/22 01:50:39;;;;;;;5.55;3.45;;;18.80;87.70;;;;;;4988785;28;20046;-67
2021/04/22 01:53:08;;;;;;;6.20;3.67;;;18.70;86.70;;;;;;4998594;28;20057;-67
2021/04/22 01:55:53;;;;;;;10.07;3.70;;;18.90;87.30;;;;;;4984269;28;20121;-67
2021/04/22 01:58:24;;;;;;;6.85;3.63;;;19.00;88.10;;;;;;4979366;28;20034;-68
2021/04/22 02:00:58;;;;;;;8.73;3.25;;;19.10;86.10;;;;;;4980103;28;22214;-69
2021/04/22 02:03:30;;;;;;;7.70;3.88;;;18.90;84.90;;;;;;4985017;28;20113;-69
2021/04/22 02:05:58;;;;;;;5.95;4.25;;;19.20;85.50;;;;;;4982123;28;20495;-68
2021/04/22 02:08:26;;;;;;;8.85;4.22;;;19.40;84.40;;;;;;4981480;28;20034;-67
2021/04/22 02:10:53;;;;;;;7.07;4.10;;;19.30;84.40;;;;;;4981492;28;20022;-67
2021/04/22 02:13:23;;;;;;;8.90;3.47;;;19.40;83.70;;;;;;4983458;28;20618;-67
2021/04/22 02:15:51;;;;;;;7.63;3.83;;;19.30;83.60;;;;;;4984868;28;20038;-67
2021/04/22 02:18:18;;;;;;;7.25;3.03;;;19.60;82.20;;;;;;4980733;28;20034;-68
2021/04/22 02:20:47;;;;;;;8.85;4.38;;;20.20;83.60;;;;;;4979210;28;20027;-68
2021/04/22 02:23:17;;;;;;;12.82;5.00;;;20.10;81.30;;;;;;4981412;28;20038;-68
2021/04/22 02:25:44;;;;;;;7.38;3.40;;;20.10;82.10;;;;;;4986216;28;20145;-68
2021/04/22 02:28:12;;;;;;;5.47;2.42;;;20.30;80.30;;;;;;4984777;28;20508;-68
2021/04/22 02:30:41;;;;;;;7.18;4.65;;;20.20;79.50;;;;;;4981807;28;20119;-69
2021/04/22 02:33:11;;;;;;;12.88;7.85;;;19.90;78.40;;;;;;4985925;28;20045;-67
2021/04/22 02:35:41;;;;;;;19.88;8.73;;;19.90;78.90;;;;;;4981699;28;20375;-68
2021/04/22 02:38:10;;;;;;;14.73;8.02;;;20.50;78.70;;;;;;4987205;28;20084;-67
2021/04/22 02:40:41;;;;;;;15.45;8.43;;;19.90;75.80;;;;;;4983116;28;20035;-67
2021/04/22 02:43:11;;;;;;;15.18;10.00;;;19.70;76.20;;;;;;5000784;28;20031;-67
2021/04/22 02:45:42;;;;;;;16.02;9.93;;;20.20;76.40;;;;;;4982512;28;20027;-67
2021/04/22 02:48:10;;;;;;;16.98;9.43;;;20.20;77.20;;;;;;4982247;28;20080;-67
2021/04/22 02:50:40;;;;;;;16.75;9.93;;;20.10;76.40;;;;;;4981666;28;20403;-67
2021/04/22 02:53:07;;;;;;;17.52;9.75;;;20.70;74.90;;;;;;4979296;28;20038;-67
2021/04/22 02:55:35;;;;;;;8.10;4.35;;;20.80;76.90;;;;;;4981845;28;20039;-68
2021/04/22 02:58:04;;;;;;;6.15;3.40;;;20.60;76.00;;;;;;4980152;28;20061;-68
2021/04/22 03:00:31;;;;;;;7.28;4.82;;;21.00;74.00;;;;;;4984719;28;20030;-68
2021/04/22 03:02:58;;;;;;;7.18;3.15;;;20.90;73.20;;;;;;4983509;28;20026;-67
2021/04/22 03:05:26;;;;;;;4.50;1.38;;;20.70;74.90;;;;;;4981631;28;20038;-68
2021/04/22 03:07:53;;;;;;;5.85;1.98;;;20.80;74.40;;;;;;4979759;28;20100;-68
2021/04/22 03:10:22;;;;;;;6.50;1.63;;;20.40;72.80;;;;;;4980965;28;20027;-67
2021/04/22 03:12:50;;;;;;;6.68;2.45;;;20.20;73.40;;;;;;4981179;28;20030;-68
2021/04/22 03:15:17;;;;;;;3.03;1.70;;;20.30;73.00;;;;;;4982390;28;20145;-68
2021/04/22 03:17:46;;;;;;;4.03;1.52;;;20.30;72.60;;;;;;4983955;28;20034;-68
2021/04/22 03:20:14;;;;;;;5.43;3.00;;;20.50;72.90;;;;;;4982384;28;20041;-69
2021/04/22 03:22:42;;;;;;;9.73;3.55;;;20.40;72.60;;;;;;4981554;28;21427;-68
2021/04/22 03:25:12;;;;;;;8.77;3.88;;;20.10;73.40;;;;;;4980631;28;20053;-68
2021/04/22 03:27:40;;;;;;;4.97;3.15;;;19.90;73.50;;;;;;4983579;28;20246;-68
2021/04/22 03:30:11;;;;;;;8.60;4.18;;;20.00;73.80;;;;;;4983396;28;20023;-68
2021/04/22 03:32:39;;;;;;;7.38;4.32;;;19.90;73.40;;;;;;4982544;28;20162;-67
2021/04/22 03:35:07;;;;;;;5.57;1.73;;;19.80;74.80;;;;;;4980605;28;20476;-68
2021/04/22 03:37:34;;;;;;;7.50;2.42;;;20.00;73.90;;;;;;4979057;28;20038;-68
2021/04/22 03:40:03;;;;;;;2.75;1.20;;;19.90;74.40;;;;;;4984021;28;20080;-67
2021/04/22 03:42:30;;;;;;;8.85;1.98;;;19.70;74.60;;;;;;4984277;28;20105;-68
2021/04/22 03:44:57;;;;;;;2.92;1.23;;;19.50;75.20;;;;;;4983618;28;20026;-69
2021/04/22 03:47:25;;;;;;;6.43;1.25;;;19.50;75.10;;;;;;4984316;28;20035;-68
2021/04/22 03:49:52;;;;;;;4.93;1.02;;;19.50;77.20;;;;;;4983625;28;20050;-68
2021/04/22 03:52:20;;;;;;;4.70;1.23;;;19.60;75.80;;;;;;4985249;28;20499;-69
2021/04/22 03:54:47;;;;;;;5.90;1.45;;;19.70;77.30;;;;;;4987105;28;20081;-67
2021/04/22 03:57:15;;;;;;;4.63;2.00;;;20.10;76.50;;;;;;4983999;28;20041;-67
2021/04/22 03:59:42;;;;;;;2.90;1.50;;;19.80;75.50;;;;;;4982912;28;20049;-67
2021/04/22 04:02:09;;;;;;;5.88;1.75;;;19.50;76.70;;;;;;4982612;28;20484;-68
2021/04/22 04:04:37;;;;;;;6.57;2.00;;;19.80;76.20;;;;;;4979531;28;20027;-69
2021/04/22 04:07:04;;;;;;;3.33;1.25;;;19.90;75.60;;;;;;4980802;28;20034;-69
2021/04/22 04:09:31;;;;;;;3.85;1.73;;;19.90;76.40;;;;;;4982094;28;20038;-69
2021/04/22 04:11:59;;;;;;;4.00;1.63;;;19.80;76.10;;;;;;4981781;28;20073;-68
2021/04/22 04:14:26;;;;;;;4.53;1.30;;;19.90;75.40;;;;;;4979631;28;20066;-68
2021/04/22 04:16:53;;;;;;;5.03;1.52;;;19.90;75.60;;;;;;4978635;28;20030;-67
2021/04/22 04:19:20;;;;;;;3.72;1.65;;;19.80;75.60;;;;;;4978138;28;20037;-68
2021/04/22 04:21:48;;;;;;;3.85;1.23;;;20.00;75.70;;;;;;4983377;28;20077;-67
2021/04/22 04:24:15;;;;;;;5.82;1.65;;;20.00;76.30;;;;;;4982159;28;20041;-67
2021/04/22 04:26:42;;;;;;;5.47;1.00;;;19.90;75.90;;;;;;4982260;28;20458;-67
2021/04/22 04:29:09;;;;;;;5.85;1.15;;;19.80;76.10;;;;;;4978215;28;20062;-68
2021/04/22 04:31:37;;;;;;;1.88;0.70;;;19.70;75.70;;;;;;4982569;28;20120;-68
2021/04/22 04:34:04;;;;;;;3.95;1.17;;;19.40;75.50;;;;;;4982238;28;20029;-68
2021/04/22 04:36:32;;;;;;;4.55;1.23;;;19.40;76.30;;;;;;4996546;28;20035;-68
2021/04/22 04:38:59;;;;;;;3.28;1.30;;;19.40;76.20;;;;;;4977168;28;20081;-67
2021/04/22 04:41:27;;;;;;;3.85;1.00;;;19.30;76.10;;;;;;4980606;28;20033;-68
2021/04/22 04:43:54;;;;;;;4.63;1.45;;;19.30;75.90;;;;;;4980362;28;20407;-68
2021/04/22 04:46:22;;;;;;;5.70;0.95;;;19.20;76.20;;;;;;4979103;28;20042;-68
2021/04/22 04:48:50;;;;;;;4.25;0.70;;;19.20;75.70;;;;;;4977548;28;20125;-68
2021/04/22 04:51:17;;;;;;;7.78;0.68;;;19.10;79.80;;;;;;4978384;28;20104;-68
2021/04/22 04:53:47;;;;;;;5.47;0.90;;;19.10;76.30;;;;;;4981623;28;20622;-68
2021/04/22 04:56:18;;;;;;;7.32;0.75;;;19.10;76.90;;;;;;4979942;28;20073;-67
2021/04/22 04:58:46;;;;;;;2.35;0.50;;;19.00;76.20;;;;;;4980920;28;20039;-67
2021/04/22 05:01:14;;;;;;;4.60;0.40;;;19.00;76.20;;;;;;4978791;28;20379;-68
2021/04/22 05:03:42;;;;;;;6.22;1.40;;;18.90;76.20;;;;;;4977162;28;20030;-68
2021/04/22 05:06:09;;;;;;;3.42;0.60;;;18.80;76.30;;;;;;4976511;28;20130;-68
2021/04/22 05:08:37;;;;;;;1.77;0.40;;;18.90;76.50;;;;;;4979075;28;20030;-68
2021/04/22 05:11:04;;;;;;;2.95;0.60;;;18.80;75.80;;;;;;4977428;28;20038;-68
2021/04/22 05:13:32;;;;;;;3.42;0.45;;;18.80;76.20;;;;;;4977174;28;20041;-68
2021/04/22 05:15:59;;;;;;;1.73;0.55;;;18.70;76.30;;;;;;4978248;28;20052;-68
2021/04/22 05:18:27;;;;;;;3.33;0.73;;;18.90;76.40;;;;;;4979051;28;20113;-68
2021/04/22 05:20:55;;;;;;;2.47;0.50;;;18.80;75.90;;;;;;4975414;28;20499;-69
2021/04/22 05:23:23;;;;;;;5.70;0.85;;;18.90;76.20;;;;;;4977537;28;20464;-69
2021/04/22 05:25:53;;;;;;;3.60;0.50;;;19.00;76.70;;;;;;4977510;28;20100;-68
2021/04/22 05:28:22;;;;;;;4.15;0.70;;;18.80;77.20;;;;;;4979385;28;20113;-68
2021/04/22 05:30:49;;;;;;;3.35;0.52;;;18.60;77.20;;;;;;4975350;28;20166;-68
2021/04/22 05:33:17;;;;;;;3.40;0.70;;;18.70;77.60;;;;;;4979411;28;20031;-68
2021/04/22 05:35:45;;;;;;;3.78;0.30;;;18.70;77.20;;;;;;4982730;28;20046;-68
2021/04/22 05:38:13;;;;;;;4.13;0.50;;;18.60;76.80;;;;;;4980139;28;20026;-68
2021/04/22 05:40:41;;;;;;;3.78;0.52;;;18.50;76.80;;;;;;4975588;28;20041;-69
2021/04/22 05:43:08;;;;;;;1.60;0.40;;;18.40;77.00;;;;;;4976803;28;20058;-69
2021/04/22 05:45:37;;;;;;;4.13;0.50;;;18.40;78.10;;;;;;4976451;28;20117;-68
2021/04/22 05:48:05;;;;;;;1.42;0.50;;;18.50;75.90;;;;;;4981255;28;20380;-68
2021/04/22 05:50:33;;;;;;;2.53;0.60;;;18.40;75.30;;;;;;4979994;28;20054;-68
2021/04/22 05:53:01;;;;;;;3.80;0.45;;;18.40;75.60;;;;;;4981214;28;20053;-69
2021/04/22 05:55:28;;;;;;;4.15;0.65;;;18.30;75.80;;;;;;4983095;28;20096;-69
2021/04/22 05:58:00;;;;;;;1.38;0.40;;;18.30;77.00;;;;;;4983516;28;20042;-68
2021/04/22 06:00:29;;;;;;;1.90;0.45;;;18.30;76.70;;;;;;4977970;28;20033;-69
2021/04/22 06:03:00;;;;;;;10.38;0.60;;;18.20;76.90;;;;;;4981791;28;20030;-68
2021/04/22 06:05:27;;;;;;;5.25;0.80;;;18.20;76.70;;;;;;4980577;28;20076;-67
2021/04/22 06:07:55;;;;;;;2.78;0.47;;;18.10;76.80;;;;;;4977888;28;20105;-68
2021/04/22 06:10:23;;;;;;;5.03;0.50;;;18.10;77.50;;;;;;4974143;28;20092;-68
2021/04/22 06:12:51;;;;;;;3.47;0.68;;;18.00;77.10;;;;;;4979042;28;20034;-67
2021/04/22 06:15:19;;;;;;;3.97;0.52;;;18.00;77.10;;;;;;4980773;28;20022;-68
2021/04/22 06:17:47;;;;;;;4.28;0.43;;;17.90;76.90;;;;;;4976270;28;20391;-68
2021/04/22 06:20:20;;;;;;;4.18;0.47;;;17.90;77.00;;;;;;4978795;28;20041;-68
2021/04/22 06:22:48;;;;;;;2.88;0.50;;;17.80;77.00;;;;;;4975327;28;20019;-70
2021/04/22 06:25:17;;;;;;;2.33;0.60;;;17.80;76.40;;;;;;4972983;28;20045;-68
2021/04/22 06:27:44;;;;;;;1.10;0.30;;;17.80;76.30;;;;;;4980391;28;20153;-68
2021/04/22 06:30:16;;;;;;;2.97;0.50;;;17.70;76.20;;;;;;4977882;28;20027;-68
2021/04/22 06:32:43;;;;;;;3.10;1.02;;;17.70;76.30;;;;;;4975862;28;20728;-68
2021/04/22 06:35:12;;;;;;;3.17;0.40;;;17.60;75.80;;;;;;4979920;28;20109;-67
2021/04/22 06:37:40;;;;;;;4.55;0.25;;;17.50;76.20;;;;;;4982080;28;20090;-67
2021/04/22 06:40:12;;;;;;;3.35;0.35;;;17.50;76.30;;;;;;4976834;28;20446;-67
2021/04/22 06:42:41;;;;;;;4.07;0.43;;;17.40;76.00;;;;;;4979922;28;20043;-67
2021/04/22 06:45:10;;;;;;;3.90;0.93;;;17.40;76.50;;;;;;4977475;28;20057;-67
2021/04/22 06:47:38;;;;;;;2.88;0.40;;;17.40;77.20;;;;;;4981818;28;20060;-67
2021/04/22 06:50:09;;;;;;;3.53;0.40;;;17.40;76.70;;;;;;4979722;28;20065;-68
2021/04/22 06:52:37;;;;;;;4.10;0.35;;;17.30;76.70;;;;;;4979447;28;20018;-68
2021/04/22 06:55:07;;;;;;;2.22;0.30;;;17.30;76.10;;;;;;4983271;28;20039;-68
2021/04/22 06:57:34;;;;;;;1.27;0.38;;;17.30;76.30;;;;;;4984837;28;20026;-69
2021/04/22 07:00:04;;;;;;;2.17;0.30;;;17.20;76.50;;;;;;4982988;28;20030;-68
2021/04/22 07:02:32;;;;;;;4.25;0.40;;;17.10;77.10;;;;;;4981653;28;20023;-68
2021/04/22 07:04:59;;;;;;;3.65;0.50;;;17.10;77.10;;;;;;4982464;28;20051;-69
2021/04/22 07:07:26;;;;;;;4.65;0.40;;;17.10;76.50;;;;;;4980605;28;20030;-68
2021/04/22 07:09:54;;;;;;;2.00;0.32;;;17.10;76.90;;;;;;4983377;28;20037;-68
2021/04/22 07:12:21;;;;;;;1.83;0.30;;;17.00;76.50;;;;;;4983664;28;20030;-68
2021/04/22 07:14:48;;;;;;;2.28;0.63;;;16.90;77.10;;;;;;4986847;28;20027;-68
2021/04/22 07:17:16;;;;;;;2.63;0.30;;;16.90;77.30;;;;;;4984718;28;20042;-68
2021/04/22 07:19:43;;;;;;;3.28;0.57;;;16.80;77.30;;;;;;4999455;28;20037;-67
2021/04/22 07:22:10;;;;;;;4.63;0.52;;;16.80;77.90;;;;;;4986026;28;20022;-67
2021/04/22 07:24:39;;;;;;;2.08;0.40;;;16.70;77.40;;;;;;4984780;28;20069;-68
2021/04/22 07:27:09;;;;;;;2.90;0.60;;;16.70;77.50;;;;;;4981656;28;20574;-68
2021/04/22 07:29:40;;;;;;;1.40;0.30;;;16.60;78.20;;;;;;4994994;28;20507;-68
2021/04/22 07:32:08;;;;;;;4.07;0.50;;;16.60;78.20;;;;;;4980761;28;20499;-67
2021/04/22 07:34:35;;;;;;;4.90;0.95;;;16.50;77.60;;;;;;4981266;28;20042;-68
2021/04/22 07:37:02;;;;;;;4.22;0.50;;;16.50;78.00;;;;;;4982967;28;20038;-67
2021/04/22 07:39:29;;;;;;;2.05;0.40;;;16.40;78.10;;;;;;4979649;28;20114;-67
2021/04/22 07:41:57;;;;;;;3.05;0.85;;;16.40;78.20;;;;;;4981140;28;20111;-67
2021/04/22 07:44:24;;;;;;;6.25;0.90;;;16.40;78.30;;;;;;4978654;28;20160;-67
2021/04/22 07:46:52;;;;;;;2.50;0.70;;;16.30;78.30;;;;;;4980865;28;20039;-67
2021/04/22 07:49:19;;;;;;;1.90;0.40;;;16.20;78.60;;;;;;4978063;28;20050;-67
2021/04/22 07:51:47;;;;;;;2.33;0.70;;;16.20;78.60;;;;;;4994751;28;20022;-68
2021/04/22 07:54:14;;;;;;;3.63;0.95;;;16.20;78.60;;;;;;4979997;28;20034;-67
2021/04/22 07:56:42;;;;;;;4.32;1.00;;;16.10;78.70;;;;;;4985947;28;20019;-67
2021/04/22 07:59:09;;;;;;;2.90;1.05;;;16.10;78.60;;;;;;4993879;28;20030;-67
2021/04/22 08:01:36;;;;;;;3.55;0.63;;;16.00;78.60;;;;;;4995835;28;20023;-66
2021/04/22 08:04:05;;;;;;;4.00;0.60;;;15.90;78.90;;;;;;4994320;28;20027;-66
2021/04/22 08:06:34;;;;;;;4.40;0.40;;;15.90;79.10;;;;;;4993330;28;20042;-67
2021/04/22 08:09:01;;;;;;;4.93;0.70;;;15.90;79.20;;;;;;4991818;28;20019;-67
2021/04/22 08:11:29;;;;;;;1.63;0.70;;;15.90;78.90;;;;;;4989411;28;20034;-67
2021/04/22 08:13:56;;;;;;;3.60;0.30;;;15.80;79.10;;;;;;4993880;28;20029;-66
2021/04/22 08:16:24;;;;;;;3.53;0.98;;;15.80;80.00;;;;;;4993247;28;20030;-67
2021/04/22 08:18:51;;;;;;;3.10;0.82;;;15.80;79.20;;;;;;4993623;28;20038;-68
2021/04/22 08:21:19;;;;;;;2.33;1.45;;;15.80;79.40;;;;;;4992323;28;20034;-68
2021/04/22 08:23:47;;;;;;;3.50;0.60;;;15.70;79.60;;;;;;4998537;28;20394;-68
2021/04/22 08:26:17;;;;;;;2.60;0.68;;;15.70;79.60;;;;;;5004216;28;20030;-67
2021/04/22 08:28:45;;;;;;;5.07;0.75;;;15.70;80.10;;;;;;5006012;28;20018;-67
2021/04/22 08:31:22;;;;;;;1.13;0.60;;;15.70;80.00;;;;;;5001109;28;20023;-69
2021/04/22 08:33:54;;;;;;;1.70;0.50;;;15.70;80.00;;;;;;4996203;28;20496;-67
2021/04/22 08:36:22;;;;;;;2.33;0.43;;;15.60;80.20;;;;;;4996795;28;20035;-68
2021/04/22 08:38:50;;;;;;;3.90;0.70;;;15.60;80.20;;;;;;4995418;28;20030;-67
2021/04/22 08:41:19;;;;;;;3.97;0.70;;;15.60;80.40;;;;;;4995479;28;20041;-68
2021/04/22 08:43:47;;;;;;;4.28;1.13;;;15.70;81.10;;;;;;4995675;28;20026;-67
2021/04/22 08:46:15;;;;;;;2.10;0.50;;;15.60;80.70;;;;;;4994307;28;20403;-67
2021/04/22 08:48:43;;;;;;;3.15;0.80;;;15.60;81.00;;;;;;4993335;28;20037;-69
2021/04/22 08:51:18;;;;;;;3.25;0.68;;;15.50;80.90;;;;;;4988316;28;20043;-67
2021/04/22 08:53:47;;;;;;;3.92;0.70;;;15.50;81.00;;;;;;5008605;28;20476;-67
2021/04/22 08:56:18;;;;;;;4.20;1.10;;;15.40;81.30;;;;;;5001339;28;20030;-67
2021/04/22 08:58:45;;;;;;;1.60;0.80;;;15.40;81.00;;;;;;5000209;28;20022;-68
2021/04/22 09:01:16;;;;;;;2.20;0.63;;;15.40;81.30;;;;;;5001646;28;20038;-68
2021/04/22 09:03:45;;;;;;;4.18;0.70;;;15.30;81.60;;;;;;4998496;28;20118;-68
2021/04/22 09:06:13;;;;;;;4.05;0.90;;;15.30;81.80;;;;;;4999291;28;20026;-68
2021/04/22 09:08:44;;;;;;;2.33;0.70;;;15.30;82.10;;;;;;4999878;28;20023;-67
2021/04/22 09:11:16;;;;;;;2.38;0.50;;;15.30;82.10;;;;;;4997691;28;20125;-67
2021/04/22 09:13:44;;;;;;;2.03;0.90;;;15.30;82.20;;;;;;5001201;28;20029;-67
2021/04/22 09:16:33;;;;;;;3.25;1.25;;;15.20;82.00;;;;;;4998611;28;20030;-67
2021/04/22 09:19:13;;;;;;;3.60;1.25;;;15.20;82.60;;;;;;4995493;28;20042;-67
2021/04/22 09:21:52;;;;;;;7.13;1.20;;;15.20;82.20;;;;;;4999135;28;20034;-67
2021/04/22 09:24:21;;;;;;;5.63;1.15;;;15.30;82.30;;;;;;4990740;28;20023;-68
2021/04/22 09:26:52;;;;;;;2.33;0.75;;;15.20;82.40;;;;;;4999416;28;20027;-65
2021/04/22 09:29:35;;;;;;;3.80;0.82;;;15.20;82.60;;;;;;4996641;28;20510;-69
2021/04/22 09:32:11;;;;;;;2.72;0.50;;;15.20;82.60;;;;;;5001800;28;20060;-68
2021/04/22 09:34:42;;;;;;;2.63;0.85;;;15.20;82.70;;;;;;5000724;28;20030;-68
2021/04/22 09:37:09;;;;;;;3.47;0.63;;;15.20;83.00;;;;;;5006147;28;20030;-68
2021/04/22 09:39:36;;;;;;;2.80;0.57;;;15.10;83.60;;;;;;4998160;28;20025;-68
2021/04/22 09:42:11;;;;;;;3.00;1.05;;;15.00;83.50;;;;;;4998110;28;20036;-68
2021/04/22 09:44:40;;;;;;;7.22;1.35;;;15.00;83.50;;;;;;4996032;28;20038;-69
2021/04/22 09:47:12;;;;;;;1.73;0.50;;;15.00;84.00;;;;;;5003674;28;20140;-66
2021/04/22 09:49:56;;;;;;;1.42;0.43;;;15.00;84.00;;;;;;4997390;28;20097;-67
2021/04/22 09:52:23;;;;;;;2.20;0.80;;;14.90;84.50;;;;;;4994200;28;20395;-67
2021/04/22 09:54:55;;;;;;;2.88;0.60;;;14.90;84.50;;;;;;4994870;28;20058;-67
2021/04/22 09:57:31;;;;;;;7.43;1.20;;;14.90;84.50;;;;;;4993871;28;20054;-67
2021/04/22 10:00:00;;;;;;;2.53;0.95;;;14.80;85.10;;;;;;4995308;28;20037;-67
2021/04/22 10:02:28;;;;;;;3.17;1.10;;;14.80;84.80;;;;;;4994318;28;20034;-67
2021/04/22 10:04:56;;;;;;;6.95;1.15;;;14.80;85.30;;;;;;4995609;28;20179;-67
2021/04/22 10:07:29;;;;;;;2.67;0.73;;;14.70;85.00;;;;;;4996047;28;20022;-68
2021/04/22 10:09:59;;;;;;;4.10;0.80;;;14.70;85.80;;;;;;4996885;28;20038;-67
2021/04/22 10:12:29;;;;;;;5.40;3.95;;;14.60;84.90;;;;;;4994167;28;20060;-68
2021/04/22 10:15:08;;;;;;;10.35;4.15;;;14.60;85.40;;;;;;4996405;28;20478;-67
2021/04/22 10:17:36;;;;;;;8.52;5.72;;;14.60;85.80;;;;;;4996654;28;20519;-67
2021/04/22 10:20:13;;;;;;;4.05;0.90;;;14.50;86.70;;;;;;4996784;28;20030;-68
2021/04/22 10:22:43;;;;;;;3.60;0.95;;;14.50;86.00;;;;;;4994763;28;20053;-67
2021/04/22 10:25:17;;;;;;;3.40;0.77;;;14.50;86.60;;;;;;4994658;28;20026;-67
2021/04/22 10:27:45;;;;;;;1.75;0.52;;;14.50;86.60;;;;;;4993978;28;20039;-67
2021/04/22 10:30:21;;;;;;;3.92;0.75;;;14.50;87.30;;;;;;4994826;28;20049;-67
2021/04/22 10:32:50;;;;;;;1.88;0.80;;;14.40;88.90;;;;;;4994086;28;20057;-67
2021/04/22 10:35:20;;;;;;;2.20;0.52;;;14.30;89.00;;;;;;4994388;28;20022;-67
2021/04/22 10:37:50;;;;;;;2.35;0.43;;;14.40;88.30;;;;;;4994699;28;20018;-68
2021/04/22 10:40:25;;;;;;;3.63;0.77;;;14.30;89.30;;;;;;4989527;28;20024;-67
2021/04/22 10:42:57;;;;;;;2.55;0.75;;;14.30;89.30;;;;;;4992425;28;20038;-67
2021/04/22 10:45:26;;;;;;;3.60;1.15;;;14.30;89.30;;;;;;4995010;28;20025;-67
2021/04/22 10:47:54;;;;;;;8.85;1.67;;;14.20;89.10;;;;;;4993499;28;20030;-67
2021/04/22 10:50:42;;;;;;;5.35;0.98;;;14.20;89.50;;;;;;4993164;28;20414;-67
2021/04/22 10:53:19;;;;;;;4.68;0.70;;;14.20;90.00;;;;;;4993831;28;20462;-67
2021/04/22 10:55:48;;;;;;;5.22;1.05;;;14.30;89.80;;;;;;4993658;28;20062;-66
2021/04/22 10:58:18;;;;;;;3.55;0.90;;;14.20;90.10;;;;;;4994543;28;20510;-67
2021/04/22 11:00:53;;;;;;;4.10;0.73;;;14.10;90.20;;;;;;4994408;28;20026;-67
2021/04/22 11:03:39;;;;;;;2.70;0.77;;;14.00;90.10;;;;;;4997138;28;20027;-67
2021/04/22 11:06:12;;;;;;;2.50;0.75;;;14.00;90.20;;;;;;4995105;28;20066;-66
2021/04/22 11:08:48;;;;;;;2.97;0.75;;;14.00;90.20;;;;;;4983073;28;20050;-67
2021/04/22 11:11:25;;;;;;;3.95;0.73;;;14.00;90.00;;;;;;4993529;28;20030;-67
2021/04/22 11:14:15;;;;;;;3.75;1.10;;;13.90;90.30;;;;;;4992072;28;20084;-67
2021/04/22 11:16:46;;;;;;;4.25;1.10;;;13.80;91.10;;;;;;4993302;28;20034;-67
2021/04/22 11:19:21;;;;;;;4.78;1.00;;;13.90;91.10;;;;;;4991277;28;20380;-67
2021/04/22 11:22:01;;;;;;;5.88;1.20;;;13.90;91.10;;;;;;4992300;28;20030;-67
2021/04/22 11:24:34;;;;;;;4.93;1.10;;;13.80;91.10;;;;;;4977437;28;20034;-67
2021/04/22 11:27:13;;;;;;;5.25;1.25;;;13.80;91.30;;;;;;4992213;28;20030;-67
2021/04/22 11:29:54;;;;;;;3.88;1.00;;;13.80;91.20;;;;;;4980995;28;20502;-67
2021/04/22 11:32:27;;;;;;;2.65;1.10;;;13.80;91.40;;;;;;4992185;28;20513;-67
2021/04/22 11:35:11;;;;;;;3.90;1.10;;;13.80;91.30;;;;;;4990799;28;20077;-67
2021/04/22 11:37:44;;;;;;;2.50;1.13;;;13.80;91.30;;;;;;4995281;28;20035;-67
2021/04/22 11:40:17;;;;;;;3.30;1.13;;;13.70;91.70;;;;;;4993599;28;20030;-67
2021/04/22 11:42:49;;;;;;;4.97;1.20;;;13.70;91.60;;;;;;4994010;28;20026;-67
2021/04/22 11:45:22;;;;;;;5.57;0.93;;;13.60;91.60;;;;;;4991299;28;20027;-67
2021/04/22 11:47:50;;;;;;;3.03;1.17;;;13.60;91.50;;;;;;5008165;28;20042;-67
2021/04/22 11:50:20;;;;;;;5.65;1.80;;;13.60;91.60;;;;;;4992370;28;20060;-68
2021/04/22 11:52:55;;;;;;;9.45;1.05;;;13.60;91.60;;;;;;4992589;28;20032;-67
2021/04/22 11:55:25;;;;;;;4.75;1.98;;;13.60;91.60;;;;;;4993386;28;20022;-68
2021/04/22 11:58:05;;;;;;;7.15;1.23;;;13.60;91.90;;;;;;4992405;28;20394;-67
2021/04/22 12:00:39;;;;;;;4.05;1.02;;;13.50;92.40;;;;;;4994757;28;20038;-68
2021/04/22 12:03:08;;;;;;;5.85;1.08;;;13.50;92.50;;;;;;4996507;28;20544;-68
2021/04/22 12:05:36;;;;;;;6.20;1.20;;;13.50;92.60;;;;;;4995720;28;20089;-67
2021/04/22 12:08:09;;;;;;;4.35;0.85;;;13.50;92.50;;;;;;4996317;28;20491;-68
2021/04/22 12:10:47;;;;;;;4.20;1.00;;;13.60;92.10;;;;;;4994911;28;20113;-68
2021/04/22 12:13:21;;;;;;;3.13;0.93;;;13.50;92.10;;;;;;4993979;28;20490;-68
2021/04/22 12:15:51;;;;;;;2.75;0.93;;;13.40;92.50;;;;;;4995991;28;20034;-68
2021/04/22 12:18:39;;;;;;;3.85;0.85;;;13.60;92.50;;;;;;4995885;28;20101;-68
2021/04/22 12:21:19;;;;;;;3.85;1.15;;;13.60;92.50;;;;;;4996370;28;20403;-68
2021/04/22 12:23:52;;;;;;;4.30;0.85;;;13.60;92.50;;;;;;4995290;28;20030;-68
2021/04/22 12:26:32;;;;;;;7.68;1.42;;;13.30;92.40;;;;;;4993366;28;20381;-68
2021/04/22 12:29:09;;;;;;;4.72;2.00;;;13.20;92.40;;;;;;4991299;28;20026;-68
2021/04/22 12:31:39;;;;;;;3.47;1.38;;;13.30;92.20;;;;;;5007022;28;20057;-67
2021/04/22 12:34:31;;;;;;;3.70;1.77;;;13.40;91.80;;;;;;4993937;28;20022;-67
2021/04/22 12:37:04;;;;;;;3.55;1.45;;;13.30;92.10;;;;;;4990539;28;20030;-68
2021/04/22 12:39:52;;;;;;;4.18;1.50;;;13.20;92.30;;;;;;5006880;28;20027;-68
2021/04/22 12:42:28;;;;;;;5.40;2.03;;;13.10;92.40;;;;;;4993234;28;20744;-68
2021/04/22 12:45:06;;;;;;;4.50;1.92;;;13.20;92.40;;;;;;4991441;28;20376;-68
2021/04/22 12:47:35;;;;;;;5.97;2.15;;;13.10;92.20;;;;;;4989189;28;20088;-68
2021/04/22 12:50:05;;;;;;;7.53;2.13;;;13.10;92.00;;;;;;4992937;28;20042;-68
2021/04/22 12:52:32;;;;;;;7.55;2.50;;;13.20;91.90;;;;;;4993512;28;20030;-68
2021/04/22 12:55:04;;;;;;;7.38;2.22;;;13.10;91.70;;;;;;4993566;28;20121;-68
2021/04/22 12:57:32;;;;;;;11.30;3.03;;;13.10;91.60;;;;;;4991898;28;20026;-68